Latest Coastal Weather Observations for Frankston

IDV60701

Issued at 12:45 pm EDT Thursday 27 November 2014 (issued every 10 minutes, with the page automatically refreshed every 10 minutes)

About coastal observations | Map of coastal stations | Coastal observations for VIC | Marine services | Other Formats
Station Details ID: 086371 Name: FRANKSTON AWS Lat: -38.15 Lon: 145.12 Height: 6.0 m
Data from the previous 72 hours. | See also: Recent months at Frankston
Date/Time
EDT
Temp

°C
Wind Pressure Rain
since 9am
mm
Weather Cloud Vis
km
Sea
Height
m
Swell
Dir
 
Speed
knots
Gust
knots
hPa Trend Height
m
Period
s
Dir
27/12:30pm 15.4 SSW 6 12 - - - - - - - - - -
27/12:00pm 15.9 S 4 10 - - - - - - - - - -
27/11:30am 15.3 SE 6 10 - - - - - - - - - -
27/11:00am 14.8 SSE 6 11 - - - - - - - - - -
27/10:30am 14.8 S 7 12 - - - - - - - - - -
27/10:00am 13.6 SW 8 13 - - - - - - - - - -
27/09:30am 14.9 S 5 11 - - - - - - - - - -
27/09:00am 13.9 S 5 9 - - - - - - - - - -
27/08:30am 13.4 SSW 4 6 - - - - - - - - - -
27/08:00am 13.1 SW 4 6 - - - - - - - - - -
27/07:30am 13.1 SSW 2 4 - - - - - - - - - -
27/07:00am 12.8 SSW 2 4 - - - - - - - - - -
27/06:30am 12.6 SW 1 2 - - - - - - - - - -
27/06:00am 12.5 SSW 2 3 - - - - - - - - - -
27/05:30am 12.5 SSW 2 4 - - - - - - - - - -
27/05:00am 12.7 SW 4 5 - - - - - - - - - -
27/04:30am 12.6 SW 3 4 - - - - - - - - - -
27/04:00am 12.6 SSW 2 3 - - - - - - - - - -
27/03:30am 12.7 CALM 0 1 - - - - - - - - - -
27/03:00am 12.8 SSW 2 4 - - - - - - - - - -
27/02:30am 12.9 S 2 4 - - - - - - - - - -
27/02:00am 13.1 S 3 7 - - - - - - - - - -
27/01:30am 13.2 S 4 7 - - - - - - - - - -
27/01:00am 13.2 SSW 2 3 - - - - - - - - - -
27/12:30am 13.2 SSW 2 2 - - - - - - - - - -
27/12:00am 13.3 S 2 3 - - - - - - - - - -
 
Date/Time
EDT
Temp

°C
Wind Pressure Rain
since 9am
mm
Weather Cloud Vis
km
Sea
Height
m
Swell
Dir
 
Speed
knots
Gust
knots
hPa Trend Height
m
Period
s
Dir
26/11:30pm 13.0 SSW 3 4 - - - - - - - - - -
26/11:00pm 12.9 S 3 5 - - - - - - - - - -
26/10:30pm 12.8 SSW 4 5 - - - - - - - - - -
26/10:00pm 12.7 SSW 3 5 - - - - - - - - - -
26/09:30pm 13.0 S 4 8 - - - - - - - - - -
26/09:00pm 13.3 SSW 4 8 - - - - - - - - - -
26/08:30pm 13.9 SSW 4 10 - - - - - - - - - -
26/08:00pm 14.7 SSW 5 8 - - - - - - - - - -
26/07:30pm 15.2 SSW 7 11 - - - - - - - - - -
26/07:00pm 15.5 SSW 8 12 - - - - - - - - - -
26/06:30pm 15.7 SSW 6 11 - - - - - - - - - -
26/06:00pm 16.3 SSW 7 13 - - - - - - - - - -
26/05:30pm 16.3 S 7 12 - - - - - - - - - -
26/05:00pm 15.8 WSW 10 13 - - - - - - - - - -
26/04:30pm 16.1 SW 6 10 - - - - - - - - - -
26/04:00pm 15.3 SSW 8 14 - - - - - - - - - -
26/03:30pm 16.9 SSW 8 14 - - - - - - - - - -
26/03:00pm 15.4 W 11 13 - - - - - - - - - -
26/02:30pm 15.4 WSW 12 15 - - - - - - - - - -
26/02:00pm 15.9 W 8 12 - - - - - - - - - -
26/01:30pm 15.6 W 7 10 - - - - - - - - - -
26/01:00pm 15.5 W 7 9 - - - - - - - - - -
26/12:30pm 15.3 WNW 6 8 - - - - - - - - - -
26/12:00pm 14.7 W 7 10 - - - - - - - - - -
26/11:30am 14.6 WNW 7 10 - - - - - - - - - -
26/11:00am 14.2 NW 6 8 - - - - - - - - - -
26/10:30am 13.9 WNW 7 10 - - - - - - - - - -
26/10:00am 14.1 WNW 8 11 - - - - - - - - - -
26/09:30am 13.8 WNW 9 12 - - - - - - - - - -
26/09:00am 13.9 WNW 9 12 - - - - - - - - - -
26/08:30am 13.8 WNW 9 10 - - - - - - - - - -
26/08:00am 14.0 WNW 8 10 - - - - - - - - - -
26/07:30am 13.8 W 8 10 - - - - - - - - - -
26/07:00am 13.5 W 8 10 - - - - - - - - - -
26/06:30am 13.5 WNW 10 12 - - - - - - - - - -
26/06:00am 13.7 W 11 13 - - - - - - - - - -
26/05:30am 13.8 W 11 14 - - - - - - - - - -
26/05:00am 13.7 W 11 14 - - - - - - - - - -
26/04:30am 14.0 WNW 11 14 - - - - - - - - - -
26/04:00am 14.0 WNW 12 14 - - - - - - - - - -
26/03:30am 14.1 W 11 14 - - - - - - - - - -
26/03:00am 14.2 W 12 15 - - - - - - - - - -
26/02:30am 14.4 W 13 15 - - - - - - - - - -
26/02:00am 14.5 W 11 14 - - - - - - - - - -
26/01:30am 14.6 W 10 14 - - - - - - - - - -
26/01:00am 14.5 W 9 11 - - - - - - - - - -
26/12:30am 14.8 W 9 12 - - - - - - - - - -
26/12:00am 14.9 W 8 11 - - - - - - - - - -
 
Date/Time
EDT
Temp

°C
Wind Pressure Rain
since 9am
mm
Weather Cloud Vis
km
Sea
Height
m
Swell
Dir
 
Speed
knots
Gust
knots
hPa Trend Height
m
Period
s
Dir
25/11:30pm 15.1 WSW 11 15 - - - - - - - - - -
25/11:00pm 14.9 SW 10 13 - - - - - - - - - -
25/10:30pm 14.6 SW 6 10 - - - - - - - - - -
25/10:00pm 14.0 SSW 5 8 - - - - - - - - - -
25/09:30pm 14.4 SSW 5 9 - - - - - - - - - -
25/09:00pm 14.5 SSW 6 9 - - - - - - - - - -
25/08:30pm 14.9 SSW 6 9 - - - - - - - - - -
25/08:00pm 15.4 SSW 8 13 - - - - - - - - - -
25/07:30pm 16.1 SW 10 16 - - - - - - - - - -
25/07:00pm 16.4 SW 12 18 - - - - - - - - - -
25/06:30pm 16.6 SW 11 16 - - - - - - - - - -
25/06:00pm 16.8 WSW 11 17 - - - - - - - - - -
25/05:30pm 16.3 WSW 12 14 - - - - - - - - - -
25/05:00pm 16.1 WSW 12 15 - - - - - - - - - -
25/04:30pm 16.1 WSW 12 15 - - - - - - - - - -
25/04:00pm 16.2 WSW 12 15 - - - - - - - - - -
25/03:30pm 16.1 WSW 9 12 - - - - - - - - - -
25/03:00pm 15.9 WSW 11 13 - - - - - - - - - -
25/02:30pm 15.8 WSW 10 12 - - - - - - - - - -
25/02:00pm 15.8 WSW 10 12 - - - - - - - - - -
25/01:30pm 15.6 WSW 12 15 - - - - - - - - - -
25/01:00pm 15.4 WSW 14 18 - - - - - - - - - -
25/12:30pm 15.0 W 7 9 - - - - - - - - - -
25/12:00pm 15.0 W 12 15 - - - - - - - - - -
25/11:30am 14.8 W 15 18 - - - - - - - - - -
25/11:00am 14.5 WNW 15 20 - - - - - - - - - -
25/10:30am 14.6 WNW 14 17 - - - - - - - - - -
25/10:00am 14.3 W 12 16 - - - - - - - - - -
25/09:30am 13.9 WNW 15 18 - - - - - - - - - -
25/09:00am 13.5 W 14 17 - - - - - - - - - -
25/08:30am 13.5 WNW 15 18 - - - - - - - - - -
25/08:00am 13.3 W 15 18 - - - - - - - - - -
25/07:30am 13.2 W 17 20 - - - - - - - - - -
25/07:00am 13.0 W 17 20 - - - - - - - - - -
25/06:30am 13.4 WNW 17 22 - - - - - - - - - -
25/06:00am 13.6 W 17 21 - - - - - - - - - -
25/05:30am 13.8 W 18 21 - - - - - - - - - -
25/05:00am 13.8 W 18 23 - - - - - - - - - -
25/04:30am 13.6 W 20 23 - - - - - - - - - -
25/04:00am 13.5 W 19 23 - - - - - - - - - -
25/03:30am 13.8 W 19 22 - - - - - - - - - -
25/03:00am 13.8 W 20 26 - - - - - - - - - -
25/02:30am 14.2 W 19 24 - - - - - - - - - -
25/02:00am 14.4 W 17 21 - - - - - - - - - -
25/01:30am 14.2 W 17 20 - - - - - - - - - -
25/01:00am 14.3 W 17 22 - - - - - - - - - -
25/12:30am 14.7 W 17 21 - - - - - - - - - -
25/12:00am 14.7 W 17 20 - - - - - - - - - -
 
Date/Time
EDT
Temp

°C
Wind Pressure Rain
since 9am
mm
Weather Cloud Vis
km
Sea
Height
m
Swell
Dir
 
Speed
knots
Gust
knots
hPa Trend Height
m
Period
s
Dir
24/11:30pm 15.1 W 18 22 - - - - - - - - - -
24/11:00pm 15.3 W 19 22 - - - - - - - - - -
24/10:30pm 15.4 W 19 22 - - - - - - - - - -
24/10:00pm 15.7 W 17 20 - - - - - - - - - -
24/09:30pm 15.8 WSW 15 18 - - - - - - - - - -
24/09:00pm 15.3 WSW 16 22 - - - - - - - - - -
24/08:30pm 14.9 SW 13 18 - - - - - - - - - -
24/08:00pm 14.5 SW 15 21 - - - - - - - - - -
24/07:30pm 14.6 SW 12 18 - - - - - - - - - -
24/07:00pm 15.0 SW 14 23 - - - - - - - - - -
24/06:30pm 15.7 SW 14 22 - - - - - - - - - -
24/06:00pm 16.7 WSW 16 21 - - - - - - - - - -
24/05:30pm 16.8 SW 15 19 - - - - - - - - - -
24/05:00pm 17.2 WSW 13 18 - - - - - - - - - -
24/04:30pm 17.2 WSW 15 19 - - - - - - - - - -
24/04:00pm 17.0 W 10 11 - - - - - - - - - -
24/03:30pm 17.0 WSW 6 8 - - - - - - - - - -
24/03:00pm 17.2 SW 7 10 - - - - - - - - - -
24/02:30pm 17.1 SW 7 10 - - - - - - - - - -
24/02:00pm 18.0 NE 1 5 - - - - - - - - - -
24/01:30pm 17.2 SE 3 6 - - - - - - - - - -
24/01:00pm 16.7 E 5 7 - - - - - - - - - -

Other Formats:

Comma delimited format used in spreadsheet applications
http://www.bom.gov.au/fwo/IDV60701/IDV60701.94871.axf

JavaScript Object Notation format (JSON) in row-major order
http://www.bom.gov.au/fwo/IDV60701/IDV60701.94871.json